KLM663 LGTS-LGMK
Flight info
| Callsign | KLM663 |
|---|---|
| Flight time | 0h 42m |
| Altitude | 23000 |
| Route | LEKPO L617 SKP M749 ATV L607 KEA L995 VARIX |
| Aircraft | B738/M-SDE2E3FGHIRWXY/LB1 |
Departure
| Time | 2026-05-09 12:35 |
|---|---|
| Airport | Thessaloniki Macedonia International Airport (LGTS) |
Arrival
| Time | 2026-05-09 13:18 |
|---|---|
| Airport | Mykonos Island National Airport (LGMK) |
| Time | Latitude | Longitude | Altitude | Speed | Heading |
|---|---|---|---|---|---|
| 2026-05-09 12:14 | 40.52393 | 22.97465 | 26 ft | 0 kts | 45° |
| 2026-05-09 12:27 | 40.52388 | 22.97458 | 26 ft | 4 kts | 45° |
| 2026-05-09 12:27 | 40.52372 | 22.97437 | 26 ft | 4 kts | 48° |
| 2026-05-09 12:27 | 40.52361 | 22.97411 | 26 ft | 4 kts | 102° |
| 2026-05-09 12:27 | 40.52373 | 22.97385 | 26 ft | 4 kts | 135° |
| 2026-05-09 12:28 | 40.52385 | 22.97370 | 26 ft | 0 kts | 135° |
| 2026-05-09 12:30 | 40.52378 | 22.97378 | 26 ft | 3 kts | 135° |
| 2026-05-09 12:30 | 40.52307 | 22.97471 | 26 ft | 11 kts | 135° |
| 2026-05-09 12:31 | 40.52242 | 22.97553 | 26 ft | 13 kts | 136° |
| 2026-05-09 12:31 | 40.52110 | 22.97700 | 26 ft | 13 kts | 138° |
| 2026-05-09 12:31 | 40.52034 | 22.97793 | 26 ft | 14 kts | 136° |
| 2026-05-09 12:32 | 40.51991 | 22.97899 | 26 ft | 15 kts | 105° |
| 2026-05-09 12:32 | 40.51963 | 22.98044 | 26 ft | 18 kts | 104° |
| 2026-05-09 12:32 | 40.51932 | 22.98210 | 26 ft | 19 kts | 104° |
| 2026-05-09 12:32 | 40.51904 | 22.98362 | 26 ft | 18 kts | 104° |
| 2026-05-09 12:33 | 40.51876 | 22.98513 | 26 ft | 16 kts | 103° |
| 2026-05-09 12:33 | 40.51855 | 22.98626 | 26 ft | 9 kts | 103° |
| 2026-05-09 12:33 | 40.51840 | 22.98677 | 26 ft | 8 kts | 126° |
| 2026-05-09 12:33 | 40.51788 | 22.98690 | 26 ft | 9 kts | 189° |
| 2026-05-09 12:34 | 40.51726 | 22.98673 | 26 ft | 10 kts | 192° |
| 2026-05-09 12:34 | 40.51690 | 22.98633 | 26 ft | 6 kts | 252° |
| 2026-05-09 12:34 | 40.51692 | 22.98597 | 26 ft | 1 kts | 283° |
| 2026-05-09 12:34 | 40.51705 | 22.98527 | 27 ft | 27 kts | 283° |
| 2026-05-09 12:35 | 40.51792 | 22.98062 | 26 ft | 78 kts | 284° |
| 2026-05-09 12:35 | 40.51963 | 22.97155 | 27 ft | 125 kts | 283° |
| 2026-05-09 12:35 | 40.52205 | 22.95861 | 104 ft | 161 kts | 283° |
| 2026-05-09 12:35 | 40.52483 | 22.94411 | 641 ft | 168 kts | 284° |
| 2026-05-09 12:36 | 40.52798 | 22.92841 | 1033 ft | 187 kts | 285° |
| 2026-05-09 12:36 | 40.53148 | 22.91114 | 1512 ft | 202 kts | 283° |
| 2026-05-09 12:36 | 40.53515 | 22.89242 | 1932 ft | 223 kts | 284° |
| 2026-05-09 12:36 | 40.53959 | 22.87205 | 2437 ft | 237 kts | 285° |
| 2026-05-09 12:37 | 40.54437 | 22.85048 | 2859 ft | 255 kts | 285° |
| 2026-05-09 12:37 | 40.54876 | 22.82744 | 3276 ft | 274 kts | 282° |
| 2026-05-09 12:37 | 40.55109 | 22.80177 | 3776 ft | 290 kts | 266° |
| 2026-05-09 12:37 | 40.54573 | 22.77642 | 4697 ft | 288 kts | 241° |
| 2026-05-09 12:38 | 40.53279 | 22.75721 | 5879 ft | 277 kts | 215° |
| 2026-05-09 12:38 | 40.51621 | 22.74821 | 7007 ft | 268 kts | 191° |
| 2026-05-09 12:38 | 40.49761 | 22.74964 | 7884 ft | 271 kts | 164° |
| 2026-05-09 12:38 | 40.48093 | 22.76190 | 8505 ft | 282 kts | 141° |
| 2026-05-09 12:39 | 40.46749 | 22.78147 | 8932 ft | 298 kts | 128° |
| 2026-05-09 12:39 | 40.45576 | 22.80431 | 9415 ft | 309 kts | 124° |
| 2026-05-09 12:39 | 40.44401 | 22.82780 | 10287 ft | 303 kts | 125° |
| 2026-05-09 12:39 | 40.43223 | 22.85025 | 11227 ft | 296 kts | 127° |
| 2026-05-09 12:40 | 40.42030 | 22.87263 | 11735 ft | 305 kts | 127° |
| 2026-05-09 12:40 | 40.40783 | 22.89619 | 11961 ft | 324 kts | 126° |
| 2026-05-09 12:40 | 40.39590 | 22.92215 | 12283 ft | 338 kts | 120° |
| 2026-05-09 12:40 | 40.38465 | 22.94937 | 12949 ft | 339 kts | 121° |
| 2026-05-09 12:41 | 40.37241 | 22.97600 | 13491 ft | 344 kts | 124° |
| 2026-05-09 12:41 | 40.35832 | 23.00127 | 14110 ft | 343 kts | 134° |
| 2026-05-09 12:41 | 40.34103 | 23.02272 | 14715 ft | 343 kts | 144° |
| 2026-05-09 12:41 | 40.32156 | 23.04088 | 15229 ft | 344 kts | 151° |
| 2026-05-09 12:42 | 40.30080 | 23.05592 | 15730 ft | 346 kts | 157° |
| 2026-05-09 12:42 | 40.27890 | 23.06925 | 16249 ft | 348 kts | 160° |
| 2026-05-09 12:42 | 40.25652 | 23.08163 | 16742 ft | 351 kts | 161° |
| 2026-05-09 12:42 | 40.23391 | 23.09403 | 17216 ft | 353 kts | 160° |
| 2026-05-09 12:43 | 40.21116 | 23.10675 | 17696 ft | 356 kts | 160° |
| 2026-05-09 12:43 | 40.18830 | 23.11965 | 18150 ft | 359 kts | 160° |
| 2026-05-09 12:43 | 40.16531 | 23.13262 | 18646 ft | 360 kts | 160° |
| 2026-05-09 12:43 | 40.14220 | 23.14561 | 19107 ft | 363 kts | 160° |
| 2026-05-09 12:44 | 40.11913 | 23.15847 | 19451 ft | 367 kts | 161° |
| 2026-05-09 12:44 | 40.09537 | 23.17103 | 19843 ft | 370 kts | 162° |
| 2026-05-09 12:44 | 40.07227 | 23.18238 | 20235 ft | 372 kts | 163° |
| 2026-05-09 12:44 | 40.04789 | 23.19413 | 20625 ft | 374 kts | 163° |
| 2026-05-09 12:45 | 40.02339 | 23.20605 | 21013 ft | 377 kts | 163° |
| 2026-05-09 12:45 | 39.99872 | 23.21822 | 21404 ft | 379 kts | 163° |
| 2026-05-09 12:45 | 39.97399 | 23.23043 | 21759 ft | 382 kts | 163° |
| 2026-05-09 12:45 | 39.94887 | 23.24274 | 22043 ft | 387 kts | 163° |
| 2026-05-09 12:46 | 39.92353 | 23.25509 | 22349 ft | 391 kts | 163° |
| 2026-05-09 12:46 | 39.89781 | 23.26759 | 22470 ft | 399 kts | 163° |
| 2026-05-09 12:46 | 39.87182 | 23.28023 | 22576 ft | 408 kts | 163° |
| 2026-05-09 12:46 | 39.84493 | 23.29337 | 22686 ft | 416 kts | 163° |
| 2026-05-09 12:47 | 39.81749 | 23.30681 | 22720 ft | 426 kts | 163° |
| 2026-05-09 12:47 | 39.78952 | 23.32049 | 22816 ft | 433 kts | 163° |
| 2026-05-09 12:47 | 39.76105 | 23.33441 | 22924 ft | 440 kts | 163° |
| 2026-05-09 12:47 | 39.73218 | 23.34852 | 23003 ft | 448 kts | 163° |
| 2026-05-09 12:48 | 39.70270 | 23.36286 | 22962 ft | 454 kts | 163° |
| 2026-05-09 12:48 | 39.67302 | 23.37726 | 23031 ft | 456 kts | 163° |
| 2026-05-09 12:48 | 39.64330 | 23.39169 | 23001 ft | 456 kts | 163° |
| 2026-05-09 12:48 | 39.61356 | 23.40613 | 23005 ft | 454 kts | 163° |
| 2026-05-09 12:49 | 39.58396 | 23.42042 | 23006 ft | 454 kts | 163° |
| 2026-05-09 12:49 | 39.55434 | 23.43468 | 23009 ft | 454 kts | 163° |
| 2026-05-09 12:49 | 39.52466 | 23.44900 | 23009 ft | 455 kts | 163° |
| 2026-05-09 12:49 | 39.49539 | 23.46317 | 23014 ft | 455 kts | 163° |
| 2026-05-09 12:50 | 39.46570 | 23.47759 | 23020 ft | 455 kts | 163° |
| 2026-05-09 12:50 | 39.43607 | 23.49204 | 23018 ft | 455 kts | 163° |
| 2026-05-09 12:50 | 39.40644 | 23.50647 | 23023 ft | 455 kts | 163° |
| 2026-05-09 12:50 | 39.37681 | 23.52087 | 23031 ft | 455 kts | 163° |
| 2026-05-09 12:51 | 39.34840 | 23.53469 | 23021 ft | 455 kts | 163° |
| 2026-05-09 12:51 | 39.31867 | 23.54918 | 23020 ft | 456 kts | 163° |
| 2026-05-09 12:51 | 39.28897 | 23.56365 | 23018 ft | 456 kts | 163° |
| 2026-05-09 12:51 | 39.25927 | 23.57811 | 23022 ft | 456 kts | 163° |
| 2026-05-09 12:52 | 39.22950 | 23.59255 | 23020 ft | 456 kts | 163° |
| 2026-05-09 12:52 | 39.20005 | 23.60665 | 23022 ft | 456 kts | 165° |
| 2026-05-09 12:52 | 39.16974 | 23.61838 | 23012 ft | 453 kts | 171° |
| 2026-05-09 12:52 | 39.13891 | 23.62609 | 23017 ft | 449 kts | 176° |
| 2026-05-09 12:53 | 39.10795 | 23.63107 | 23022 ft | 447 kts | 179° |
| 2026-05-09 12:53 | 39.07696 | 23.63480 | 23020 ft | 447 kts | 180° |
| 2026-05-09 12:53 | 39.04599 | 23.63834 | 23019 ft | 447 kts | 179° |
| 2026-05-09 12:53 | 39.01501 | 23.64207 | 23020 ft | 447 kts | 179° |
| 2026-05-09 12:54 | 38.98402 | 23.64597 | 23022 ft | 448 kts | 179° |
| 2026-05-09 12:54 | 38.95302 | 23.64996 | 23017 ft | 447 kts | 179° |
| 2026-05-09 12:54 | 38.92194 | 23.65404 | 23025 ft | 448 kts | 179° |
| 2026-05-09 12:54 | 38.89094 | 23.65851 | 23021 ft | 448 kts | 178° |
| 2026-05-09 12:55 | 38.85990 | 23.66319 | 23024 ft | 448 kts | 178° |
| 2026-05-09 12:55 | 38.82891 | 23.66791 | 23020 ft | 448 kts | 178° |
| 2026-05-09 12:55 | 38.79790 | 23.67255 | 23025 ft | 448 kts | 178° |
| 2026-05-09 12:55 | 38.76692 | 23.67712 | 23019 ft | 448 kts | 179° |
| 2026-05-09 12:56 | 38.73632 | 23.68162 | 23008 ft | 448 kts | 179° |
| 2026-05-09 12:56 | 38.70535 | 23.68622 | 23020 ft | 449 kts | 179° |
| 2026-05-09 12:56 | 38.67430 | 23.69083 | 23051 ft | 449 kts | 179° |
| 2026-05-09 12:56 | 38.64466 | 23.69522 | 23026 ft | 451 kts | 179° |
| 2026-05-09 12:57 | 38.61354 | 23.69983 | 23008 ft | 449 kts | 179° |
| 2026-05-09 12:57 | 38.58250 | 23.70447 | 23026 ft | 449 kts | 179° |
| 2026-05-09 12:57 | 38.55145 | 23.70908 | 23020 ft | 448 kts | 179° |
| 2026-05-09 12:57 | 38.52045 | 23.71360 | 23019 ft | 447 kts | 179° |
| 2026-05-09 12:58 | 38.48997 | 23.71802 | 23017 ft | 446 kts | 179° |
| 2026-05-09 12:58 | 38.45908 | 23.72252 | 23030 ft | 446 kts | 179° |
| 2026-05-09 12:58 | 38.42824 | 23.72704 | 23031 ft | 447 kts | 179° |
| 2026-05-09 12:58 | 38.39734 | 23.73155 | 23020 ft | 447 kts | 179° |
| 2026-05-09 12:59 | 38.36645 | 23.73608 | 23017 ft | 446 kts | 179° |
| 2026-05-09 12:59 | 38.33562 | 23.74061 | 23018 ft | 446 kts | 179° |
| 2026-05-09 12:59 | 38.30475 | 23.74511 | 23044 ft | 445 kts | 179° |
| 2026-05-09 12:59 | 38.27390 | 23.74952 | 23047 ft | 447 kts | 179° |
| 2026-05-09 13:00 | 38.24293 | 23.75384 | 22993 ft | 446 kts | 180° |
| 2026-05-09 13:00 | 38.21216 | 23.75813 | 23023 ft | 445 kts | 180° |
| 2026-05-09 13:00 | 38.18137 | 23.76240 | 23025 ft | 446 kts | 180° |
| 2026-05-09 13:00 | 38.15054 | 23.76671 | 23016 ft | 446 kts | 179° |
| 2026-05-09 13:01 | 38.12369 | 23.77061 | 23041 ft | 446 kts | 179° |
| 2026-05-09 13:01 | 38.09273 | 23.77522 | 23030 ft | 446 kts | 179° |
| 2026-05-09 13:01 | 38.06228 | 23.77978 | 23019 ft | 445 kts | 179° |
| 2026-05-09 13:01 | 38.03153 | 23.78430 | 23015 ft | 445 kts | 179° |
| 2026-05-09 13:02 | 38.00068 | 23.78871 | 23013 ft | 445 kts | 179° |
| 2026-05-09 13:02 | 37.96992 | 23.79303 | 23027 ft | 445 kts | 179° |
| 2026-05-09 13:02 | 37.94040 | 23.79724 | 23021 ft | 446 kts | 178° |
| 2026-05-09 13:02 | 37.90990 | 23.80647 | 22974 ft | 456 kts | 164° |
| 2026-05-09 13:03 | 37.88180 | 23.82485 | 23035 ft | 467 kts | 152° |
| 2026-05-09 13:03 | 37.85587 | 23.85010 | 23042 ft | 474 kts | 142° |
| 2026-05-09 13:03 | 37.83237 | 23.87954 | 23043 ft | 476 kts | 136° |
| 2026-05-09 13:03 | 37.81046 | 23.91106 | 23004 ft | 478 kts | 133° |
| 2026-05-09 13:04 | 37.78935 | 23.94354 | 22709 ft | 478 kts | 132° |
| 2026-05-09 13:04 | 37.76858 | 23.97594 | 22174 ft | 469 kts | 132° |
| 2026-05-09 13:04 | 37.74811 | 24.00770 | 21662 ft | 463 kts | 133° |
| 2026-05-09 13:04 | 37.72778 | 24.03902 | 21155 ft | 457 kts | 133° |
| 2026-05-09 13:05 | 37.70762 | 24.06991 | 20635 ft | 453 kts | 133° |
| 2026-05-09 13:05 | 37.68761 | 24.10051 | 20112 ft | 449 kts | 133° |
| 2026-05-09 13:05 | 37.66782 | 24.13069 | 19636 ft | 444 kts | 133° |
| 2026-05-09 13:05 | 37.64814 | 24.16072 | 19129 ft | 442 kts | 133° |
| 2026-05-09 13:06 | 37.62858 | 24.19053 | 18561 ft | 438 kts | 133° |
| 2026-05-09 13:06 | 37.60928 | 24.21990 | 18054 ft | 433 kts | 133° |
| 2026-05-09 13:06 | 37.59030 | 24.24868 | 17551 ft | 428 kts | 133° |
| 2026-05-09 13:06 | 37.57241 | 24.27865 | 17025 ft | 430 kts | 124° |
| 2026-05-09 13:07 | 37.56012 | 24.31300 | 16385 ft | 430 kts | 110° |
| 2026-05-09 13:07 | 37.55349 | 24.34983 | 15855 ft | 430 kts | 99° |
| 2026-05-09 13:07 | 37.55069 | 24.38716 | 15334 ft | 424 kts | 94° |
| 2026-05-09 13:07 | 37.54977 | 24.42416 | 14808 ft | 421 kts | 92° |
| 2026-05-09 13:08 | 37.54934 | 24.46087 | 14207 ft | 416 kts | 92° |
| 2026-05-09 13:08 | 37.54876 | 24.49692 | 13690 ft | 404 kts | 92° |
| 2026-05-09 13:08 | 37.54808 | 24.53188 | 13196 ft | 392 kts | 93° |
| 2026-05-09 13:08 | 37.54736 | 24.56563 | 12688 ft | 380 kts | 93° |
| 2026-05-09 13:09 | 37.54663 | 24.59863 | 12131 ft | 373 kts | 93° |
| 2026-05-09 13:09 | 37.54604 | 24.63053 | 11687 ft | 367 kts | 92° |
| 2026-05-09 13:09 | 37.54589 | 24.66252 | 11236 ft | 363 kts | 91° |
| 2026-05-09 13:09 | 37.54583 | 24.69411 | 10791 ft | 360 kts | 92° |
| 2026-05-09 13:10 | 37.54539 | 24.72553 | 10336 ft | 357 kts | 93° |
| 2026-05-09 13:10 | 37.54469 | 24.75655 | 9878 ft | 352 kts | 94° |
| 2026-05-09 13:10 | 37.54395 | 24.78724 | 9432 ft | 348 kts | 94° |
| 2026-05-09 13:10 | 37.54325 | 24.81749 | 8977 ft | 341 kts | 94° |
| 2026-05-09 13:11 | 37.54256 | 24.84696 | 8536 ft | 332 kts | 94° |
| 2026-05-09 13:11 | 37.54183 | 24.87562 | 8131 ft | 322 kts | 94° |
| 2026-05-09 13:11 | 37.54110 | 24.90352 | 7750 ft | 313 kts | 94° |
| 2026-05-09 13:11 | 37.54036 | 24.93058 | 7379 ft | 305 kts | 94° |
| 2026-05-09 13:12 | 37.53964 | 24.95717 | 6912 ft | 302 kts | 94° |
| 2026-05-09 13:12 | 37.53898 | 24.98296 | 6547 ft | 295 kts | 94° |
| 2026-05-09 13:12 | 37.53831 | 25.00857 | 6210 ft | 287 kts | 94° |
| 2026-05-09 13:12 | 37.53765 | 25.03334 | 5881 ft | 280 kts | 94° |
| 2026-05-09 13:13 | 37.53702 | 25.05771 | 5490 ft | 277 kts | 94° |
| 2026-05-09 13:13 | 37.53642 | 25.08180 | 5135 ft | 273 kts | 94° |
| 2026-05-09 13:13 | 37.53583 | 25.10549 | 4811 ft | 266 kts | 94° |
| 2026-05-09 13:13 | 37.53520 | 25.12855 | 4472 ft | 262 kts | 94° |
| 2026-05-09 13:14 | 37.53462 | 25.15127 | 4080 ft | 258 kts | 94° |
| 2026-05-09 13:14 | 37.53401 | 25.17366 | 3726 ft | 254 kts | 94° |
| 2026-05-09 13:16 | 37.50368 | 25.30445 | 2311 ft | 205 kts | 153° |
| 2026-05-09 13:16 | 37.49545 | 25.31009 | 2118 ft | 193 kts | 151° |
| 2026-05-09 13:16 | 37.48125 | 25.32195 | 1596 ft | 187 kts | 143° |
| 2026-05-09 13:16 | 37.47116 | 25.33128 | 1261 ft | 172 kts | 149° |
| 2026-05-09 13:17 | 37.46068 | 25.33723 | 881 ft | 162 kts | 164° |
| 2026-05-09 13:17 | 37.45021 | 25.34157 | 576 ft | 152 kts | 161° |
| 2026-05-09 13:17 | 37.44075 | 25.34578 | 404 ft | 135 kts | 162° |
| 2026-05-09 13:17 | 37.43350 | 25.34896 | 400 ft | 78 kts | 158° |
| 2026-05-09 13:18 | 37.43027 | 25.35038 | 402 ft | 32 kts | 161° |
| 2026-05-09 13:18 | 37.42858 | 25.35112 | 403 ft | 17 kts | 160° |
| 2026-05-09 13:18 | 37.42758 | 25.35130 | 405 ft | 10 kts | 176° |
| 2026-05-09 13:18 | 37.42744 | 25.35153 | 405 ft | 2 kts | 77° |
| 2026-05-09 13:19 | 37.42758 | 25.35162 | 405 ft | 4 kts | 15° |
| 2026-05-09 13:19 | 37.42793 | 25.35152 | 405 ft | 6 kts | 337° |
| 2026-05-09 13:19 | 37.42851 | 25.35120 | 403 ft | 12 kts | 336° |
| 2026-05-09 13:19 | 37.42932 | 25.35082 | 402 ft | 11 kts | 340° |
| 2026-05-09 13:20 | 37.43001 | 25.35051 | 402 ft | 9 kts | 340° |
| 2026-05-09 13:20 | 37.43069 | 25.35021 | 401 ft | 12 kts | 340° |
| 2026-05-09 13:20 | 37.43165 | 25.34979 | 399 ft | 16 kts | 340° |
| 2026-05-09 13:20 | 37.43229 | 25.34951 | 399 ft | 13 kts | 341° |
| 2026-05-09 13:21 | 37.43321 | 25.34911 | 400 ft | 16 kts | 340° |
| 2026-05-09 13:21 | 37.43410 | 25.34807 | 399 ft | 10 kts | 299° |
| 2026-05-09 13:21 | 37.43438 | 25.34756 | 401 ft | 11 kts | 316° |
| 2026-05-09 13:21 | 37.43518 | 25.34711 | 402 ft | 11 kts | 341° |
| 2026-05-09 13:22 | 37.43572 | 25.34689 | 403 ft | 4 kts | 340° |
| 2026-05-09 13:22 | 37.43587 | 25.34674 | 403 ft | 5 kts | 310° |
| 2026-05-09 13:22 | 37.43595 | 25.34645 | 404 ft | 2 kts | 277° |
| 2026-05-09 13:23 | 37.43591 | 25.34618 | 404 ft | 0 kts | 257° |